Time;durP1;ratioP1;P1;durP2;ratioP2;P2;SDS_P1;SDS_P2;PMS_P1;PMS_P2;Temp;Humidity;BMP_temperature;BMP_pressure;BME280_temperature;BME280_humidity;BME280_pressure;Samples;Min_cycle;Max_cycle;Signal;HPM_P1;HPM_P2
2022/11/14 00:02:25;;;;;;;20.77;12.38;;;5.70;99.90;;;;;;5027394;28;20417;-73
2022/11/14 00:04:51;;;;;;;22.52;12.88;;;5.70;99.90;;;;;;5021080;28;20029;-74
2022/11/14 00:07:16;;;;;;;17.45;11.32;;;5.70;99.90;;;;;;5029024;28;20032;-74
2022/11/14 00:09:42;;;;;;;19.65;13.90;;;5.70;99.90;;;;;;5024934;28;20058;-73
2022/11/14 00:12:11;;;;;;;21.02;14.05;;;5.70;99.90;;;;;;5024999;28;20048;-73
2022/11/14 00:14:37;;;;;;;23.20;13.95;;;5.60;99.90;;;;;;5025193;28;20117;-74
2022/11/14 00:17:04;;;;;;;21.02;13.80;;;5.60;99.90;;;;;;5020327;28;20105;-73
2022/11/14 00:19:30;;;;;;;21.30;14.23;;;5.60;99.90;;;;;;5019868;28;20096;-73
2022/11/14 00:21:56;;;;;;;26.08;14.15;;;5.50;99.90;;;;;;5022689;28;20112;-74
2022/11/14 00:24:21;;;;;;;23.42;14.70;;;5.50;99.90;;;;;;5028141;28;20105;-74
2022/11/14 00:26:47;;;;;;;22.27;14.65;;;5.50;99.90;;;;;;5017845;28;20113;-73
2022/11/14 00:29:14;;;;;;;25.95;14.82;;;5.50;99.90;;;;;;5025594;28;20128;-73
2022/11/14 00:31:40;;;;;;;24.48;15.55;;;5.40;99.90;;;;;;5020420;28;20045;-74
2022/11/14 00:34:06;;;;;;;25.30;14.98;;;5.40;99.90;;;;;;5027103;28;20052;-73
2022/11/14 00:36:31;;;;;;;27.08;15.88;;;5.40;99.90;;;;;;5025309;28;20079;-73
2022/11/14 00:38:57;;;;;;;23.55;14.60;;;5.40;99.90;;;;;;5031418;28;20389;-74
2022/11/14 00:41:23;;;;;;;28.60;16.17;;;5.30;99.90;;;;;;5025263;28;20147;-74
2022/11/14 00:43:49;;;;;;;27.45;15.43;;;5.30;99.90;;;;;;5021060;28;20421;-74
2022/11/14 00:46:14;;;;;;;27.30;15.15;;;5.30;99.90;;;;;;5033474;28;20025;-74
2022/11/14 00:48:40;;;;;;;25.30;16.13;;;5.30;99.90;;;;;;5028323;28;20393;-75
2022/11/14 00:51:06;;;;;;;26.38;16.55;;;5.20;99.90;;;;;;5014386;28;20120;-74
2022/11/14 00:53:32;;;;;;;25.10;15.00;;;5.20;99.90;;;;;;5023726;28;20113;-73
2022/11/14 00:55:58;;;;;;;32.25;18.17;;;5.10;99.90;;;;;;5034948;28;20501;-74
2022/11/14 00:58:23;;;;;;;29.77;17.60;;;5.10;99.90;;;;;;5020583;28;20084;-74
2022/11/14 01:00:50;;;;;;;28.92;17.02;;;5.00;99.90;;;;;;5026699;28;20021;-74
2022/11/14 01:03:15;;;;;;;30.70;16.73;;;5.00;99.90;;;;;;5020293;28;20030;-74
2022/11/14 01:05:47;;;;;;;26.10;15.65;;;4.90;99.90;;;;;;5028730;28;20034;-74
2022/11/14 01:08:15;;;;;;;30.10;16.67;;;4.90;99.90;;;;;;5021978;28;20029;-74
2022/11/14 01:10:42;;;;;;;31.70;18.40;;;4.80;99.90;;;;;;5026323;28;20493;-74
2022/11/14 01:13:09;;;;;;;28.25;18.00;;;4.80;99.90;;;;;;5024023;28;20041;-74
2022/11/14 01:15:40;;;;;;;34.92;19.85;;;4.70;99.90;;;;;;5030657;28;20104;-74
2022/11/14 01:18:06;;;;;;;31.88;18.05;;;4.70;99.90;;;;;;5029861;28;20026;-74
2022/11/14 01:20:32;;;;;;;27.70;17.05;;;4.60;99.90;;;;;;5020141;28;20023;-75
2022/11/14 01:22:57;;;;;;;32.72;19.00;;;4.60;99.90;;;;;;5024958;28;20122;-74
2022/11/14 01:25:23;;;;;;;38.03;19.80;;;4.60;99.90;;;;;;5026994;28;20036;-74
2022/11/14 01:27:49;;;;;;;30.00;18.48;;;4.50;99.90;;;;;;5025937;28;20382;-74
2022/11/14 01:30:14;;;;;;;38.03;19.23;;;4.50;99.90;;;;;;5028622;28;20072;-74
2022/11/14 01:32:40;;;;;;;35.53;19.95;;;4.50;99.90;;;;;;5023675;28;20041;-74
2022/11/14 01:35:06;;;;;;;38.17;20.65;;;4.40;99.90;;;;;;5030653;28;20029;-74
2022/11/14 01:37:31;;;;;;;35.13;20.00;;;4.40;99.90;;;;;;5015674;28;20038;-74
2022/11/14 01:39:57;;;;;;;35.78;21.17;;;4.40;99.90;;;;;;5027139;28;20454;-74
2022/11/14 01:42:23;;;;;;;35.90;20.85;;;4.40;99.90;;;;;;5030706;28;20022;-74
2022/11/14 01:44:51;;;;;;;40.42;21.65;;;4.30;99.90;;;;;;5026084;28;20029;-74
2022/11/14 01:47:26;;;;;;;38.17;21.63;;;4.30;99.90;;;;;;5022606;28;20489;-74
2022/11/14 01:49:58;;;;;;;35.38;20.00;;;4.30;99.90;;;;;;5021644;28;20025;-74
2022/11/14 01:52:25;;;;;;;36.60;21.15;;;4.30;99.90;;;;;;5020674;28;20037;-74
2022/11/14 01:54:54;;;;;;;35.53;21.50;;;4.20;99.90;;;;;;5028793;28;20493;-74
2022/11/14 01:57:26;;;;;;;42.33;22.33;;;4.20;99.90;;;;;;5023178;28;20367;-74
2022/11/14 01:59:54;;;;;;;35.50;19.63;;;4.20;99.90;;;;;;5029730;28;20021;-74
2022/11/14 02:02:23;;;;;;;38.28;21.33;;;4.20;99.90;;;;;;5023996;28;21081;-73
2022/11/14 02:05:19;;;;;;;38.72;21.15;;;4.20;99.90;;;;;;5026939;28;20116;-74
2022/11/14 02:07:44;;;;;;;40.95;22.33;;;4.20;99.90;;;;;;5022001;28;20398;-73
2022/11/14 02:10:17;;;;;;;36.40;20.58;;;4.10;99.90;;;;;;5020884;28;20029;-74
2022/11/14 02:12:44;;;;;;;38.10;21.00;;;4.10;99.90;;;;;;5029467;28;20079;-74
2022/11/14 02:15:10;;;;;;;42.20;23.23;;;4.10;99.90;;;;;;5023515;28;20091;-74
2022/11/14 02:17:36;;;;;;;36.05;20.35;;;4.10;99.90;;;;;;5025435;28;20447;-74
2022/11/14 02:20:18;;;;;;;42.28;22.50;;;4.10;99.90;;;;;;5028392;28;20057;-74
2022/11/14 02:22:44;;;;;;;39.20;22.95;;;4.10;99.90;;;;;;5019294;28;20029;-74
2022/11/14 02:25:14;;;;;;;41.03;21.20;;;4.10;99.90;;;;;;5026173;28;20032;-74
2022/11/14 02:27:41;;;;;;;43.28;23.05;;;4.00;99.90;;;;;;5031372;28;20044;-74
2022/11/14 02:30:10;;;;;;;45.58;23.73;;;4.00;99.90;;;;;;5004715;28;20041;-74
2022/11/14 02:32:36;;;;;;;42.72;23.63;;;4.00;99.90;;;;;;5019132;28;20083;-74
2022/11/14 02:35:01;;;;;;;41.08;22.70;;;4.00;99.90;;;;;;5024541;28;20021;-74
2022/11/14 02:37:27;;;;;;;43.20;23.15;;;3.90;99.90;;;;;;5025246;28;20029;-74
2022/11/14 02:39:52;;;;;;;43.83;22.65;;;3.90;99.90;;;;;;5026091;28;20025;-75
2022/11/14 02:42:18;;;;;;;41.22;23.00;;;3.90;99.90;;;;;;5021583;28;20029;-74
2022/11/14 02:44:43;;;;;;;48.25;23.77;;;3.90;99.90;;;;;;5025880;28;20086;-74
2022/11/14 02:47:09;;;;;;;41.92;23.50;;;3.80;99.90;;;;;;5029526;28;20183;-74
2022/11/14 02:49:35;;;;;;;43.38;23.30;;;3.80;99.90;;;;;;5022864;28;20021;-74
2022/11/14 02:52:00;;;;;;;44.60;25.10;;;3.80;99.90;;;;;;5025778;28;20044;-74
2022/11/14 02:54:26;;;;;;;48.58;24.60;;;3.80;99.90;;;;;;5019131;28;20033;-74
2022/11/14 02:56:51;;;;;;;44.95;23.63;;;3.80;99.90;;;;;;5028064;28;20466;-74
2022/11/14 02:59:17;;;;;;;48.10;26.15;;;3.70;99.90;;;;;;5028360;28;20021;-74
2022/11/14 03:01:42;;;;;;;48.80;24.50;;;3.70;99.90;;;;;;5028913;28;20101;-74
2022/11/14 03:04:08;;;;;;;46.92;23.83;;;3.70;99.90;;;;;;5026883;28;20148;-74
2022/11/14 03:06:34;;;;;;;54.67;26.35;;;3.60;99.90;;;;;;5026573;28;20409;-74
2022/11/14 03:08:59;;;;;;;48.35;25.88;;;3.70;99.90;;;;;;5020857;28;20442;-74
2022/11/14 03:11:25;;;;;;;52.83;26.60;;;3.70;99.90;;;;;;5026387;28;20045;-74
2022/11/14 03:13:50;;;;;;;48.83;25.45;;;3.60;99.90;;;;;;5026292;28;20024;-74
2022/11/14 03:16:16;;;;;;;53.88;27.23;;;3.60;99.90;;;;;;5027554;28;20025;-73
2022/11/14 03:18:41;;;;;;;52.67;28.35;;;3.60;99.90;;;;;;5027702;28;20017;-74
2022/11/14 03:21:14;;;;;;;50.90;26.60;;;3.60;99.90;;;;;;5021480;28;20038;-74
2022/11/14 03:23:39;;;;;;;57.03;28.23;;;3.60;99.90;;;;;;5023115;28;20111;-74
2022/11/14 03:26:08;;;;;;;54.00;26.80;;;3.60;99.90;;;;;;5020274;28;20048;-74
2022/11/14 03:28:34;;;;;;;56.28;28.20;;;3.60;99.90;;;;;;5027110;28;20112;-74
2022/11/14 03:30:59;;;;;;;48.70;24.10;;;3.60;99.90;;;;;;5024602;28;20192;-74
2022/11/14 03:33:25;;;;;;;58.72;27.88;;;3.50;99.90;;;;;;5022872;28;20473;-73
2022/11/14 03:35:51;;;;;;;55.70;26.83;;;3.50;99.90;;;;;;5027618;28;20034;-73
2022/11/14 03:38:17;;;;;;;57.55;27.92;;;3.50;99.90;;;;;;5026836;28;21836;-74
2022/11/14 03:40:43;;;;;;;50.80;26.80;;;3.50;99.90;;;;;;5029178;28;20032;-74
2022/11/14 03:43:09;;;;;;;55.88;26.80;;;3.50;99.90;;;;;;5017127;28;20116;-74
2022/11/14 03:45:37;;;;;;;55.10;27.42;;;3.40;99.90;;;;;;5028229;28;20532;-73
2022/11/14 03:48:04;;;;;;;52.67;27.70;;;3.40;99.90;;;;;;5026393;28;20410;-74
2022/11/14 03:50:30;;;;;;;64.28;30.02;;;3.40;99.90;;;;;;5019952;28;20014;-74
2022/11/14 03:52:55;;;;;;;59.58;28.02;;;3.40;99.90;;;;;;5024895;28;20534;-74
2022/11/14 03:55:21;;;;;;;58.58;28.52;;;3.30;99.90;;;;;;5024469;28;20026;-74
2022/11/14 03:57:46;;;;;;;57.22;28.20;;;3.30;99.90;;;;;;5023237;28;20026;-74
2022/11/14 04:00:12;;;;;;;59.45;29.58;;;3.30;99.90;;;;;;5026688;28;20377;-74
2022/11/14 04:02:38;;;;;;;64.95;29.90;;;3.30;99.90;;;;;;5013098;28;20030;-74
2022/11/14 04:05:04;;;;;;;55.90;27.58;;;3.30;99.90;;;;;;5021444;28;20037;-74
2022/11/14 04:07:29;;;;;;;62.50;29.67;;;3.30;99.90;;;;;;5027501;28;20091;-74
2022/11/14 04:09:55;;;;;;;57.85;26.98;;;3.30;99.90;;;;;;5031411;28;20375;-74
2022/11/14 04:12:20;;;;;;;60.53;29.33;;;3.20;99.90;;;;;;5033354;28;20433;-74
2022/11/14 04:14:46;;;;;;;64.35;29.98;;;3.20;99.90;;;;;;5027367;28;20029;-74
2022/11/14 04:17:12;;;;;;;54.85;25.95;;;3.20;99.90;;;;;;5030861;28;20022;-74
2022/11/14 04:19:37;;;;;;;63.90;28.88;;;3.20;99.90;;;;;;5027729;28;20099;-73
2022/11/14 04:22:03;;;;;;;57.75;27.65;;;3.20;99.90;;;;;;5030832;28;20029;-74
2022/11/14 04:24:28;;;;;;;62.40;28.83;;;3.20;99.90;;;;;;5030436;28;20028;-74
2022/11/14 04:26:54;;;;;;;61.45;29.23;;;3.20;99.90;;;;;;5029600;28;20037;-73
2022/11/14 04:29:19;;;;;;;61.28;27.60;;;3.20;99.90;;;;;;5031466;28;20508;-74
2022/11/14 04:31:45;;;;;;;56.85;26.00;;;3.20;99.90;;;;;;5026022;28;20045;-74
2022/11/14 04:34:11;;;;;;;61.78;28.63;;;3.20;99.90;;;;;;5029636;28;20028;-75
2022/11/14 04:36:36;;;;;;;58.80;28.45;;;3.20;99.90;;;;;;5029683;28;20053;-73
2022/11/14 04:39:02;;;;;;;61.47;28.33;;;3.10;99.90;;;;;;5029777;28;20096;-73
2022/11/14 04:41:27;;;;;;;63.70;30.42;;;3.10;99.90;;;;;;5031300;28;20088;-74
2022/11/14 04:43:53;;;;;;;64.75;30.27;;;3.10;99.90;;;;;;5031362;28;20053;-74
2022/11/14 04:46:18;;;;;;;59.30;28.85;;;3.10;99.90;;;;;;5023457;28;20036;-74
2022/11/14 04:48:44;;;;;;;59.38;28.38;;;3.00;99.90;;;;;;5029358;28;20030;-74
2022/11/14 04:51:10;;;;;;;57.10;28.77;;;3.00;99.90;;;;;;5023707;28;20446;-75
2022/11/14 04:53:35;;;;;;;59.63;27.60;;;3.00;99.90;;;;;;5028137;28;20042;-74
2022/11/14 04:56:01;;;;;;;60.55;29.05;;;3.00;99.90;;;;;;5021220;28;20056;-74
2022/11/14 04:58:26;;;;;;;61.90;27.05;;;3.00;99.90;;;;;;5017139;28;20053;-74
2022/11/14 05:00:52;;;;;;;60.30;26.52;;;3.00;99.90;;;;;;5018221;28;20060;-74
2022/11/14 05:03:18;;;;;;;61.80;29.88;;;3.00;99.90;;;;;;5032037;28;20049;-74
2022/11/14 05:05:43;;;;;;;55.03;27.52;;;2.90;99.90;;;;;;5024705;28;20446;-74
2022/11/14 05:08:09;;;;;;;60.20;28.92;;;3.00;99.90;;;;;;5019082;28;20025;-74
2022/11/14 05:10:34;;;;;;;66.45;29.38;;;2.90;99.90;;;;;;5031467;28;20053;-74
2022/11/14 05:13:00;;;;;;;54.90;26.45;;;2.90;99.90;;;;;;5029548;28;20037;-74
2022/11/14 05:15:26;;;;;;;62.47;29.80;;;2.90;99.90;;;;;;5026390;28;20018;-74
2022/11/14 05:17:51;;;;;;;60.67;28.23;;;2.90;99.90;;;;;;5017137;28;20116;-74
2022/11/14 05:20:17;;;;;;;65.07;28.10;;;2.90;99.90;;;;;;5021606;28;20538;-75
2022/11/14 05:22:42;;;;;;;61.33;28.05;;;2.90;99.90;;;;;;5024425;28;20041;-74
2022/11/14 05:25:08;;;;;;;60.80;27.95;;;2.90;99.90;;;;;;5023647;28;20033;-74
2022/11/14 05:27:34;;;;;;;56.92;27.35;;;2.90;99.90;;;;;;5031692;28;20489;-74
2022/11/14 05:30:00;;;;;;;57.40;27.02;;;2.90;99.90;;;;;;5022716;28;20053;-74
2022/11/14 05:32:25;;;;;;;54.45;27.33;;;2.90;99.90;;;;;;5026398;28;20052;-74
2022/11/14 05:34:51;;;;;;;55.55;25.70;;;2.90;99.90;;;;;;5027087;28;20033;-74
2022/11/14 05:37:16;;;;;;;59.28;26.60;;;2.90;99.90;;;;;;5030542;28;20481;-74
2022/11/14 05:39:42;;;;;;;56.22;25.17;;;2.90;99.90;;;;;;5020467;28;20022;-74
2022/11/14 05:42:07;;;;;;;56.33;26.90;;;2.90;99.90;;;;;;5023156;28;20053;-74
2022/11/14 05:44:33;;;;;;;60.10;26.45;;;2.80;99.90;;;;;;5023442;28;20088;-74
2022/11/14 05:46:58;;;;;;;56.05;25.33;;;2.80;99.90;;;;;;5028802;28;20034;-74
2022/11/14 05:49:24;;;;;;;57.42;26.63;;;2.80;99.90;;;;;;5025945;28;20025;-74
2022/11/14 05:51:50;;;;;;;55.50;25.73;;;2.80;99.90;;;;;;5029174;28;20099;-75
2022/11/14 05:54:15;;;;;;;59.55;27.30;;;2.80;99.90;;;;;;5028716;28;20465;-74
2022/11/14 05:56:43;;;;;;;55.00;23.90;;;2.80;99.90;;;;;;5029842;28;20033;-74
2022/11/14 05:59:09;;;;;;;55.13;26.17;;;2.80;99.90;;;;;;5025569;28;20059;-74
2022/11/14 06:01:35;;;;;;;59.10;27.75;;;2.80;99.90;;;;;;5022468;28;20041;-75
2022/11/14 06:04:00;;;;;;;58.25;28.13;;;2.70;99.90;;;;;;5023932;28;20553;-74
2022/11/14 06:06:26;;;;;;;59.40;26.98;;;2.70;99.90;;;;;;5014734;28;20170;-74
2022/11/14 06:08:52;;;;;;;54.72;27.90;;;2.70;99.90;;;;;;5016204;28;20072;-74
2022/11/14 06:11:19;;;;;;;59.28;26.65;;;2.70;99.90;;;;;;5026397;28;20069;-74
2022/11/14 06:13:45;;;;;;;58.72;27.10;;;2.70;99.90;;;;;;5024889;28;20036;-74
2022/11/14 06:16:13;;;;;;;62.38;27.85;;;2.70;99.90;;;;;;5016047;28;20029;-74
2022/11/14 06:18:39;;;;;;;57.30;26.00;;;2.70;99.90;;;;;;5022575;28;20036;-74
2022/11/14 06:21:19;;;;;;;53.17;26.00;;;2.60;99.90;;;;;;5024770;28;20038;-74
2022/11/14 06:23:46;;;;;;;53.55;26.05;;;2.60;99.90;;;;;;5021375;28;20053;-74
2022/11/14 06:26:20;;;;;;;53.95;24.92;;;2.60;99.90;;;;;;5017252;28;20026;-73
2022/11/14 06:28:46;;;;;;;56.00;26.27;;;2.60;99.90;;;;;;5020921;28;20037;-74
2022/11/14 06:31:11;;;;;;;54.80;25.40;;;2.60;99.90;;;;;;5011728;28;20422;-74
2022/11/14 06:33:37;;;;;;;59.08;26.77;;;2.60;99.90;;;;;;5020148;28;20033;-74
2022/11/14 06:36:05;;;;;;;56.65;25.27;;;2.60;99.90;;;;;;5021561;28;20037;-74
2022/11/14 06:38:32;;;;;;;47.55;22.92;;;2.50;99.90;;;;;;5021876;28;20055;-74
2022/11/14 06:41:11;;;;;;;50.25;23.02;;;2.50;99.90;;;;;;5024770;28;20021;-74
2022/11/14 06:43:44;;;;;;;54.28;24.88;;;2.50;99.90;;;;;;5020343;28;20025;-74
2022/11/14 06:46:12;;;;;;;54.15;24.27;;;2.60;99.90;;;;;;5020705;28;20355;-74
2022/11/14 06:48:38;;;;;;;54.90;25.10;;;2.60;99.90;;;;;;5020920;28;20052;-74
2022/11/14 06:51:04;;;;;;;54.13;24.92;;;2.60;99.90;;;;;;5021281;28;20508;-74
2022/11/14 06:53:32;;;;;;;54.45;24.63;;;2.70;99.90;;;;;;5023321;28;20048;-74
2022/11/14 06:56:04;;;;;;;54.90;24.55;;;2.70;99.90;;;;;;5016263;28;20034;-74
2022/11/14 06:58:38;;;;;;;54.88;24.85;;;2.70;99.90;;;;;;5017076;28;20045;-73
2022/11/14 07:01:06;;;;;;;49.83;23.77;;;2.70;99.90;;;;;;5015004;28;20091;-77
2022/11/14 07:03:32;;;;;;;54.83;25.27;;;2.70;99.90;;;;;;5018131;28;20025;-74
2022/11/14 07:05:59;;;;;;;50.83;25.15;;;2.70;99.90;;;;;;5028152;28;20026;-74
2022/11/14 07:08:24;;;;;;;49.58;22.30;;;2.80;99.90;;;;;;5027047;28;20034;-74
2022/11/14 07:10:50;;;;;;;50.85;24.40;;;2.80;99.90;;;;;;5018503;28;20044;-74
2022/11/14 07:13:15;;;;;;;47.67;22.65;;;2.80;99.90;;;;;;5028194;28;20051;-74
2022/11/14 07:15:52;;;;;;;51.60;23.70;;;2.80;99.90;;;;;;5024494;28;20494;-74
2022/11/14 07:18:18;;;;;;;50.80;23.35;;;2.80;99.90;;;;;;5025524;28;20120;-74
2022/11/14 07:20:44;;;;;;;52.95;24.13;;;2.80;99.90;;;;;;5026168;28;20021;-74
2022/11/14 07:23:09;;;;;;;48.13;22.55;;;2.80;99.90;;;;;;5025251;28;20045;-75
2022/11/14 07:25:35;;;;;;;49.50;22.85;;;2.90;99.90;;;;;;5028972;28;20030;-75
2022/11/14 07:28:00;;;;;;;56.13;24.15;;;2.90;99.90;;;;;;5020423;28;20034;-75
2022/11/14 07:30:26;;;;;;;47.22;23.50;;;2.90;99.90;;;;;;5012154;28;20087;-74
2022/11/14 07:32:56;;;;;;;53.17;24.33;;;2.90;99.90;;;;;;5024986;28;20051;-74
2022/11/14 07:35:25;;;;;;;52.97;24.45;;;2.90;99.90;;;;;;5019425;28;20037;-74
2022/11/14 07:37:51;;;;;;;48.00;25.15;;;2.90;99.90;;;;;;5019055;28;20152;-75
2022/11/14 07:40:17;;;;;;;50.45;25.23;;;3.00;99.90;;;;;;5030748;28;20450;-74
2022/11/14 07:42:43;;;;;;;43.38;21.38;;;3.00;99.90;;;;;;5030583;28;20478;-75
2022/11/14 07:45:09;;;;;;;53.22;25.13;;;3.00;99.90;;;;;;5018405;28;20048;-74
2022/11/14 07:47:35;;;;;;;49.75;24.50;;;3.10;99.90;;;;;;5015791;28;20017;-74
2022/11/14 07:50:01;;;;;;;45.85;23.25;;;3.10;99.90;;;;;;5020087;28;20033;-74
2022/11/14 07:52:26;;;;;;;45.28;22.33;;;3.20;99.90;;;;;;5024324;28;20490;-75
2022/11/14 07:54:52;;;;;;;48.95;23.52;;;3.20;99.90;;;;;;5017994;28;20071;-75
2022/11/14 07:57:18;;;;;;;46.90;23.38;;;3.30;99.90;;;;;;5016230;28;20769;-74
2022/11/14 07:59:43;;;;;;;49.65;23.95;;;3.30;99.90;;;;;;5021545;28;20025;-74
2022/11/14 08:02:13;;;;;;;46.42;24.13;;;3.40;99.90;;;;;;5017975;28;20512;-74
2022/11/14 08:04:40;;;;;;;44.85;23.65;;;3.40;99.90;;;;;;5017308;28;20036;-74
2022/11/14 08:07:05;;;;;;;51.33;25.70;;;3.40;99.90;;;;;;5016457;28;20079;-73
2022/11/14 08:09:31;;;;;;;46.53;23.73;;;3.40;99.90;;;;;;5014207;28;20029;-74
2022/11/14 08:11:57;;;;;;;44.15;22.80;;;3.50;99.90;;;;;;5023780;28;20580;-74
2022/11/14 08:14:22;;;;;;;50.67;24.42;;;3.50;99.90;;;;;;5029391;28;20038;-74
2022/11/14 08:16:49;;;;;;;50.92;23.70;;;3.60;99.90;;;;;;5029359;28;20044;-73
2022/11/14 08:19:15;;;;;;;48.63;22.80;;;3.70;99.90;;;;;;5028047;28;20075;-73
2022/11/14 08:21:41;;;;;;;43.78;23.00;;;3.70;99.90;;;;;;5027399;28;20132;-73
2022/11/14 08:24:07;;;;;;;45.78;22.33;;;3.80;99.90;;;;;;5028914;28;20061;-73
2022/11/14 08:26:33;;;;;;;46.88;22.88;;;3.90;99.90;;;;;;5021435;28;20108;-75
2022/11/14 08:28:58;;;;;;;44.45;22.55;;;3.90;99.90;;;;;;5023563;28;20481;-75
2022/11/14 08:31:24;;;;;;;46.53;23.00;;;3.90;99.90;;;;;;5028944;28;20057;-73
2022/11/14 08:33:51;;;;;;;37.88;19.95;;;4.00;99.90;;;;;;5027496;28;20033;-74
2022/11/14 08:36:17;;;;;;;42.33;21.20;;;4.10;99.90;;;;;;5023920;28;20568;-73
2022/11/14 08:38:43;;;;;;;31.50;17.85;;;4.20;99.90;;;;;;5018967;28;20449;-75
2022/11/14 08:41:09;;;;;;;34.53;17.95;;;4.30;99.90;;;;;;5019008;28;20410;-75
2022/11/14 08:43:34;;;;;;;29.75;17.30;;;4.50;99.90;;;;;;5023020;28;20044;-75
2022/11/14 08:46:02;;;;;;;34.17;18.85;;;4.70;99.90;;;;;;5029580;28;20064;-75
2022/11/14 08:48:28;;;;;;;33.92;17.10;;;4.90;99.90;;;;;;5021453;28;20022;-75
2022/11/14 08:50:54;;;;;;;29.85;17.25;;;5.00;99.90;;;;;;5017391;28;20486;-75
2022/11/14 08:53:19;;;;;;;26.63;15.50;;;5.20;99.90;;;;;;5019924;28;20036;-75
2022/11/14 08:55:45;;;;;;;22.33;14.32;;;5.30;99.90;;;;;;5021210;28;20033;-75
2022/11/14 08:58:11;;;;;;;24.20;14.32;;;5.40;99.90;;;;;;5017650;28;20081;-73
2022/11/14 09:00:36;;;;;;;24.67;13.77;;;5.60;99.90;;;;;;5020735;28;20385;-74
2022/11/14 09:03:10;;;;;;;22.50;13.60;;;5.90;99.90;;;;;;5021883;28;20056;-73
2022/11/14 09:05:36;;;;;;;22.20;13.32;;;6.00;99.90;;;;;;5016739;28;20053;-74
2022/11/14 09:08:02;;;;;;;25.55;12.93;;;6.20;99.90;;;;;;5020134;28;20062;-74
2022/11/14 09:10:28;;;;;;;23.02;13.43;;;6.40;99.90;;;;;;5025015;28;20146;-74
2022/11/14 09:12:55;;;;;;;22.88;13.15;;;6.50;99.90;;;;;;5024106;28;20390;-75
2022/11/14 09:15:21;;;;;;;22.38;13.30;;;6.70;99.90;;;;;;5019216;28;20033;-74
2022/11/14 09:17:47;;;;;;;21.33;13.93;;;6.80;99.90;;;;;;5022334;28;20037;-74
2022/11/14 09:20:13;;;;;;;22.98;13.93;;;6.90;99.90;;;;;;5021958;28;20049;-74
2022/11/14 09:22:38;;;;;;;25.42;13.90;;;7.00;99.90;;;;;;5031349;28;20051;-74
2022/11/14 09:25:04;;;;;;;19.02;13.10;;;7.00;99.90;;;;;;5018838;28;20018;-74
2022/11/14 09:27:30;;;;;;;21.27;12.57;;;7.20;99.90;;;;;;5019357;28;20026;-74
2022/11/14 09:29:55;;;;;;;22.38;13.63;;;7.20;99.90;;;;;;5021455;28;20030;-74
2022/11/14 09:32:21;;;;;;;22.17;13.52;;;7.20;99.90;;;;;;5024069;28;20128;-74
2022/11/14 09:34:46;;;;;;;20.67;12.82;;;7.30;99.90;;;;;;5014568;28;20065;-74
2022/11/14 09:37:12;;;;;;;20.95;12.88;;;7.40;99.90;;;;;;5022993;28;20033;-75
2022/11/14 09:39:39;;;;;;;19.60;12.40;;;7.40;99.90;;;;;;5019076;28;20456;-74
2022/11/14 09:42:41;;;;;;;23.77;13.15;;;7.40;99.90;;;;;;5016380;28;20385;-76
2022/11/14 09:45:12;;;;;;;22.33;13.32;;;7.50;99.90;;;;;;5020848;28;20021;-75
2022/11/14 09:48:14;;;;;;;20.75;13.02;;;7.50;99.90;;;;;;5021314;28;20040;-77
2022/11/14 09:50:47;;;;;;;20.65;12.85;;;7.50;99.90;;;;;;5004987;28;20037;-76
2022/11/14 09:53:30;;;;;;;25.50;13.70;;;7.60;99.90;;;;;;5021299;28;20050;-75
2022/11/14 09:55:57;;;;;;;21.45;12.93;;;7.60;99.90;;;;;;5028404;28;20030;-75
2022/11/14 09:58:22;;;;;;;23.55;13.82;;;7.60;99.90;;;;;;5031413;28;20067;-75
2022/11/14 10:01:02;;;;;;;20.20;13.13;;;7.70;99.90;;;;;;5018940;28;20417;-74
2022/11/14 10:03:45;;;;;;;20.67;12.68;;;7.70;99.90;;;;;;5019024;28;20379;-75
2022/11/14 10:06:29;;;;;;;21.15;13.15;;;7.70;99.90;;;;;;5018205;28;20029;-75
2022/11/14 10:09:27;;;;;;;20.75;13.55;;;7.70;99.90;;;;;;5017476;28;20438;-75
2022/11/14 10:12:14;;;;;;;22.45;14.00;;;7.80;99.90;;;;;;5037090;28;20040;-74
2022/11/14 10:15:21;;;;;;;22.27;13.65;;;7.90;99.90;;;;;;5016326;28;20029;-74
2022/11/14 10:17:50;;;;;;;21.33;13.90;;;7.90;99.90;;;;;;5025432;28;20021;-74
2022/11/14 10:20:43;;;;;;;22.98;14.20;;;7.90;99.90;;;;;;5029431;28;20064;-74
2022/11/14 10:23:32;;;;;;;25.50;15.25;;;7.90;99.90;;;;;;5024218;28;20512;-74
2022/11/14 10:25:58;;;;;;;23.30;15.13;;;8.00;99.90;;;;;;5029570;28;20369;-74
2022/11/14 10:28:24;;;;;;;23.85;14.63;;;8.00;99.90;;;;;;5021996;28;20025;-75
2022/11/14 10:31:32;;;;;;;22.65;14.00;;;8.00;99.90;;;;;;5030558;28;20041;-74
2022/11/14 10:34:04;;;;;;;22.42;14.45;;;8.00;99.90;;;;;;5015399;28;20402;-75
2022/11/14 10:36:51;;;;;;;22.00;13.30;;;8.00;99.90;;;;;;5014272;28;20390;-74
2022/11/14 10:39:20;;;;;;;24.02;14.73;;;8.00;99.90;;;;;;5021847;28;20025;-74
2022/11/14 10:41:49;;;;;;;21.85;14.73;;;8.10;99.90;;;;;;5027531;28;20017;-74
2022/11/14 10:44:20;;;;;;;25.30;15.48;;;8.10;99.90;;;;;;5029289;28;20028;-74
2022/11/14 10:46:50;;;;;;;26.08;16.17;;;8.10;99.90;;;;;;5030934;28;20033;-75
2022/11/14 10:49:22;;;;;;;25.05;14.73;;;8.20;99.90;;;;;;5018806;28;20055;-74
2022/11/14 10:51:52;;;;;;;23.23;16.05;;;8.20;99.90;;;;;;5025111;28;20393;-74
2022/11/14 10:54:31;;;;;;;24.60;15.50;;;8.20;99.90;;;;;;5027179;28;20503;-75
2022/11/14 10:56:56;;;;;;;30.20;16.23;;;8.30;99.90;;;;;;5027177;28;20052;-74
2022/11/14 10:59:30;;;;;;;26.48;16.30;;;8.40;99.90;;;;;;5030730;28;20018;-78
2022/11/14 11:01:57;;;;;;;27.10;17.13;;;8.40;99.90;;;;;;5014415;28;20113;-74
2022/11/14 11:04:32;;;;;;;26.90;15.88;;;8.40;99.90;;;;;;5016482;28;20546;-75
2022/11/14 11:07:06;;;;;;;27.13;16.33;;;8.50;99.90;;;;;;5011572;28;20018;-75
2022/11/14 11:12:36;;;;;;;29.73;17.92;;;8.60;99.90;;;;;;5023536;28;20060;-75
2022/11/14 11:15:20;;;;;;;26.75;17.40;;;8.60;99.90;;;;;;5022035;28;20509;-75
2022/11/14 11:17:59;;;;;;;30.98;18.73;;;8.70;99.90;;;;;;5012558;28;20026;-75
2022/11/14 11:20:37;;;;;;;36.47;20.75;;;8.70;99.90;;;;;;5026367;28;20396;-75
2022/11/14 11:23:17;;;;;;;34.53;22.48;;;8.80;99.90;;;;;;5020266;28;20033;-75
2022/11/14 11:25:43;;;;;;;34.65;21.85;;;8.80;99.90;;;;;;5029908;28;20029;-75
2022/11/14 11:28:20;;;;;;;37.22;22.45;;;8.80;99.90;;;;;;5030222;28;20485;-75
2022/11/14 11:30:55;;;;;;;40.17;25.08;;;8.80;99.90;;;;;;5026073;28;20132;-75
2022/11/14 11:33:41;;;;;;;41.03;26.20;;;8.80;99.90;;;;;;5021127;28;20037;-75
2022/11/14 11:36:22;;;;;;;45.47;28.45;;;8.90;99.90;;;;;;5016101;28;20705;-75
2022/11/14 11:38:48;;;;;;;51.30;31.35;;;8.90;99.90;;;;;;5020274;28;20090;-75
2022/11/14 11:41:32;;;;;;;50.47;33.47;;;8.90;99.90;;;;;;5021691;28;20496;-75
2022/11/14 11:44:04;;;;;;;49.47;30.17;;;8.90;99.90;;;;;;5024290;28;20069;-75
2022/11/14 11:46:56;;;;;;;46.33;28.25;;;8.90;99.90;;;;;;5017546;28;20560;-75
2022/11/14 11:49:40;;;;;;;45.83;29.08;;;8.80;99.90;;;;;;5026443;28;20033;-75
2022/11/14 11:52:15;;;;;;;41.53;26.95;;;8.70;99.90;;;;;;5020155;28;20040;-77
2022/11/14 11:54:49;;;;;;;39.38;25.92;;;8.70;99.90;;;;;;5025985;28;20029;-75
2022/11/14 11:57:17;;;;;;;42.60;27.60;;;8.50;99.90;;;;;;5022647;28;20022;-75
2022/11/14 11:59:48;;;;;;;49.08;28.85;;;8.50;99.90;;;;;;5026822;28;20093;-75
2022/11/14 12:02:24;;;;;;;46.22;27.63;;;8.50;99.90;;;;;;5014708;28;20128;-75
2022/11/14 12:04:52;;;;;;;45.47;27.23;;;8.40;99.90;;;;;;5027587;28;20022;-75
2022/11/14 12:07:21;;;;;;;43.85;26.17;;;8.40;99.90;;;;;;5019430;28;20026;-75
2022/11/14 12:09:49;;;;;;;41.67;25.00;;;8.40;99.90;;;;;;5017825;28;20101;-75
2022/11/14 12:12:34;;;;;;;41.30;24.38;;;8.40;99.90;;;;;;5016621;28;20037;-75
2022/11/14 12:15:25;;;;;;;42.30;25.65;;;8.30;99.90;;;;;;5020638;28;20120;-75
2022/11/14 12:18:26;;;;;;;41.60;25.45;;;8.30;99.90;;;;;;5014228;28;20029;-75
2022/11/14 12:21:24;;;;;;;38.63;23.67;;;8.30;99.90;;;;;;5024547;28;20053;-75
2022/11/14 12:24:21;;;;;;;40.53;23.13;;;8.30;99.90;;;;;;5034507;28;20037;-75
2022/11/14 12:27:10;;;;;;;41.33;23.65;;;8.40;99.90;;;;;;5022632;28;20045;-75
2022/11/14 12:30:08;;;;;;;38.05;23.92;;;8.30;99.90;;;;;;5025883;28;20025;-75
2022/11/14 12:32:48;;;;;;;37.53;21.77;;;8.30;99.90;;;;;;5027050;28;20076;-76
2022/11/14 12:35:22;;;;;;;38.15;23.02;;;8.30;99.90;;;;;;5018580;28;20105;-76
2022/11/14 12:37:51;;;;;;;41.05;23.67;;;8.30;99.90;;;;;;5028405;28;20492;-76
2022/11/14 12:40:27;;;;;;;42.97;23.65;;;8.20;99.90;;;;;;5029303;28;20421;-75
2022/11/14 12:42:54;;;;;;;46.00;26.23;;;8.20;99.90;;;;;;5034408;28;20037;-76
2022/11/14 12:45:44;;;;;;;39.95;22.23;;;8.20;99.90;;;;;;5027468;28;20025;-76
2022/11/14 12:48:24;;;;;;;45.83;23.98;;;8.30;99.90;;;;;;5025524;28;20038;-76
2022/11/14 12:50:54;;;;;;;45.72;23.83;;;8.30;99.90;;;;;;5030480;28;20029;-76